createdAt,value
2023-01-04T00:01:08.595Z,98287.47
2023-01-04T00:03:35.520Z,98278.66
2023-01-04T00:06:04.128Z,98270.69
2023-01-04T00:08:30.772Z,98272.25
2023-01-04T00:11:01.278Z,98278.00
2023-01-04T00:13:27.999Z,98270.69
2023-01-04T00:15:54.731Z,98268.25
2023-01-04T00:18:21.351Z,98279.28
2023-01-04T00:20:47.949Z,98270.59
2023-01-04T00:23:14.631Z,98268.53
2023-01-04T00:25:41.284Z,98264.56
2023-01-04T00:28:07.925Z,98264.50
2023-01-04T00:30:34.522Z,98260.59
2023-01-04T00:33:01.162Z,98260.50
2023-01-04T00:35:45.205Z,98259.47
2023-01-04T00:38:12.659Z,98263.00
2023-01-04T00:40:39.301Z,98263.00
2023-01-04T00:43:05.981Z,98270.03
2023-01-04T00:45:32.679Z,98264.66
2023-01-04T00:47:59.416Z,98268.66
2023-01-04T00:50:26.021Z,98272.44
2023-01-04T00:52:52.619Z,98274.19
2023-01-04T00:55:19.225Z,98267.81
2023-01-04T00:57:45.889Z,98273.56
2023-01-04T01:00:13.135Z,98272.28
2023-01-04T01:02:39.989Z,98268.97
2023-01-04T01:05:07.436Z,98261.97
2023-01-04T01:07:34.076Z,98260.41
2023-01-04T01:10:00.685Z,98262.75
2023-01-04T01:12:27.279Z,98264.13
2023-01-04T01:15:00.177Z,98260.03
2023-01-04T01:17:27.155Z,98256.44
2023-01-04T01:19:53.782Z,98248.38
2023-01-04T01:22:20.371Z,98257.53
2023-01-04T01:24:47.084Z,98251.88
2023-01-04T01:27:13.739Z,98262.91
2023-01-04T01:29:40.380Z,98261.97
2023-01-04T01:32:07.088Z,98267.50
2023-01-04T01:34:33.755Z,98266.03
2023-01-04T01:37:00.372Z,98264.72
2023-01-04T01:39:27.126Z,98268.53
2023-01-04T01:41:53.782Z,98267.66
2023-01-04T01:44:42.015Z,98270.34
2023-01-04T01:47:19.097Z,98262.94
2023-01-04T01:49:46.772Z,98272.31
2023-01-04T01:52:18.392Z,98274.78
2023-01-04T01:54:46.435Z,98273.41
2023-01-04T01:57:15.615Z,98276.09
2023-01-04T01:59:42.820Z,98284.78
2023-01-04T02:02:09.681Z,98292.13
2023-01-04T02:04:37.169Z,98295.94
2023-01-04T02:07:03.857Z,98294.06
2023-01-04T02:09:30.623Z,98298.38
2023-01-04T02:11:57.255Z,98293.34
2023-01-04T02:14:23.872Z,98289.28
2023-01-04T02:16:56.765Z,98298.91
2023-01-04T02:19:50.987Z,98303.47
2023-01-04T02:22:47.842Z,98299.47
2023-01-04T02:25:39.127Z,98299.19
2023-01-04T02:28:33.594Z,98292.16
2023-01-04T02:31:21.155Z,98296.59
2023-01-04T02:34:21.719Z,98292.59
2023-01-04T02:36:58.059Z,98290.34
2023-01-04T02:39:42.850Z,98290.72
2023-01-04T02:42:09.332Z,98285.25
2023-01-04T02:44:42.727Z,98285.34
2023-01-04T02:47:11.418Z,98288.13
2023-01-04T02:49:38.137Z,98284.09
2023-01-04T02:52:04.881Z,98284.94
2023-01-04T02:54:31.515Z,98279.47
2023-01-04T02:57:23.032Z,98285.94
2023-01-04T03:00:01.599Z,98280.06
2023-01-04T03:02:56.683Z,98279.97
2023-01-04T03:05:38.970Z,98280.72
2023-01-04T03:08:18.451Z,98281.06
2023-01-04T03:11:03.976Z,98274.75
2023-01-04T03:13:39.630Z,98287.13
2023-01-04T03:16:13.167Z,98284.94
2023-01-04T03:18:44.220Z,98286.69
2023-01-04T03:21:11.644Z,98288.69
2023-01-04T03:23:38.315Z,98283.31
2023-01-04T03:26:10.188Z,98283.19
2023-01-04T03:28:37.072Z,98279.69
2023-01-04T03:31:12.469Z,98279.50
2023-01-04T03:33:39.108Z,98285.75
2023-01-04T03:36:17.614Z,98284.22
2023-01-04T03:39:34.755Z,98278.97
2023-01-04T03:42:07.616Z,98288.84
2023-01-04T03:45:13.246Z,98283.19
2023-01-04T03:48:10.056Z,98279.25
2023-01-04T03:50:42.360Z,98264.78
2023-01-04T03:53:08.967Z,98267.00
2023-01-04T03:55:36.326Z,98267.81
2023-01-04T03:58:02.982Z,98262.09
2023-01-04T04:00:29.644Z,98263.22
2023-01-04T04:02:57.240Z,98259.53
2023-01-04T04:05:23.966Z,98260.56
2023-01-04T04:07:50.600Z,98262.38
2023-01-04T04:10:17.207Z,98250.97
2023-01-04T04:12:43.899Z,98252.16
2023-01-04T04:15:10.709Z,98249.81
2023-01-04T04:17:37.311Z,98246.28
2023-01-04T04:20:04.152Z,98242.41
2023-01-04T04:22:30.740Z,98240.38
2023-01-04T04:24:57.368Z,98244.38
2023-01-04T04:27:23.978Z,98241.69
2023-01-04T04:29:50.566Z,98245.94
2023-01-04T04:32:17.245Z,98240.97
2023-01-04T04:34:43.923Z,98246.69
2023-01-04T04:37:10.603Z,98253.63
2023-01-04T04:39:37.251Z,98247.28
2023-01-04T04:42:03.909Z,98249.88
2023-01-04T04:44:30.577Z,98249.41
2023-01-04T04:46:57.251Z,98240.78
2023-01-04T04:49:23.893Z,98241.66
2023-01-04T04:51:50.522Z,98250.41
2023-01-04T04:54:19.298Z,98254.91
2023-01-04T04:56:46.245Z,98256.09
2023-01-04T04:59:12.900Z,98254.72
2023-01-04T05:01:39.643Z,98252.06
2023-01-04T05:04:06.587Z,98255.06
2023-01-04T05:06:33.796Z,98262.03
2023-01-04T05:09:00.479Z,98258.34
2023-01-04T05:11:27.106Z,98270.72
2023-01-04T05:13:53.759Z,98270.69
2023-01-04T05:16:20.410Z,98265.63
2023-01-04T05:18:47.027Z,98267.41
2023-01-04T05:21:17.024Z,98272.88
2023-01-04T05:23:46.644Z,98274.25
2023-01-04T05:26:13.412Z,98266.66
2023-01-04T05:28:40.068Z,98279.53
2023-01-04T05:31:06.781Z,98278.34
2023-01-04T05:33:36.030Z,98278.25
2023-01-04T05:36:03.318Z,98277.25
2023-01-04T05:38:30.118Z,98277.53
2023-01-04T05:40:56.867Z,98294.63
2023-01-04T05:43:23.741Z,98289.47
2023-01-04T05:45:54.469Z,98284.00
2023-01-04T05:48:21.588Z,98284.50
2023-01-04T05:50:48.327Z,98284.00
2023-01-04T05:53:15.586Z,98288.19
2023-01-04T05:55:42.255Z,98281.31
2023-01-04T05:58:09.160Z,98281.50
2023-01-04T06:00:35.809Z,98296.88
2023-01-04T06:03:02.594Z,98301.88
2023-01-04T06:05:29.303Z,98297.47
2023-01-04T06:07:55.920Z,98290.41
2023-01-04T06:10:22.700Z,98295.06
2023-01-04T06:12:49.323Z,98281.84
2023-01-04T06:15:15.994Z,98285.63
2023-01-04T06:17:42.848Z,98280.81
2023-01-04T06:20:09.973Z,98281.34
2023-01-04T06:22:36.735Z,98285.34
2023-01-04T06:25:03.958Z,98286.53
2023-01-04T06:27:30.593Z,98279.97
2023-01-04T06:29:57.196Z,98282.16
2023-01-04T06:32:23.787Z,98289.91
2023-01-04T06:34:50.440Z,98291.41
2023-01-04T06:37:17.106Z,98285.34
2023-01-04T06:39:43.867Z,98294.28
2023-01-04T06:42:10.463Z,98295.69
2023-01-04T06:44:37.134Z,98294.13
2023-01-04T06:47:03.764Z,98299.69
2023-01-04T06:49:30.433Z,98301.00
2023-01-04T06:51:57.067Z,98296.38
2023-01-04T06:54:23.689Z,98294.16
2023-01-04T06:56:50.280Z,98300.53
2023-01-04T06:59:16.943Z,98305.44
2023-01-04T07:01:43.608Z,98310.63
2023-01-04T07:04:10.424Z,98305.75
2023-01-04T07:06:37.095Z,98316.59
2023-01-04T07:09:03.703Z,98321.38
2023-01-04T07:11:30.308Z,98317.41
2023-01-04T07:13:56.954Z,98320.91
2023-01-04T07:16:24.212Z,98325.09
2023-01-04T07:18:50.901Z,98323.78
2023-01-04T07:21:17.553Z,98324.72
2023-01-04T07:23:44.239Z,98331.78
2023-01-04T07:26:10.841Z,98333.28
2023-01-04T07:28:37.426Z,98339.22
2023-01-04T07:31:05.976Z,98340.47
2023-01-04T07:33:32.670Z,98347.69
2023-01-04T07:36:05.804Z,98348.94
2023-01-04T07:38:33.827Z,98348.16
2023-01-04T07:41:00.486Z,98354.78
2023-01-04T07:43:28.444Z,98349.78
2023-01-04T07:45:55.721Z,98351.91
2023-01-04T07:48:22.410Z,98352.44
2023-01-04T07:50:49.922Z,98351.56
2023-01-04T07:53:16.604Z,98344.72
2023-01-04T07:55:43.290Z,98350.97
2023-01-04T07:58:09.950Z,98357.09
2023-01-04T08:00:36.666Z,98359.47
2023-01-04T08:03:03.584Z,98351.38
2023-01-04T08:05:34.126Z,98353.13
2023-01-04T08:08:00.851Z,98354.63
2023-01-04T08:10:27.508Z,98363.84
2023-01-04T08:12:54.154Z,98358.28
2023-01-04T08:15:20.764Z,98357.75
2023-01-04T08:17:47.368Z,98350.19
2023-01-04T08:20:14.031Z,98356.41
2023-01-04T08:22:40.714Z,98344.78
2023-01-04T08:25:07.601Z,98340.41
2023-01-04T08:27:34.271Z,98351.53
2023-01-04T08:30:00.939Z,98351.53
2023-01-04T08:32:27.601Z,98358.88
2023-01-04T08:34:54.274Z,98366.94
2023-01-04T08:37:21.002Z,98362.94
2023-01-04T08:39:49.831Z,98370.56
2023-01-04T08:42:24.712Z,98373.25
2023-01-04T08:44:59.557Z,98378.13
2023-01-04T08:47:29.809Z,98382.91
2023-01-04T08:49:56.457Z,98372.84
2023-01-04T08:52:23.174Z,98387.75
2023-01-04T08:54:49.817Z,98384.88
2023-01-04T08:57:17.217Z,98384.16
2023-01-04T08:59:43.829Z,98374.03
2023-01-04T09:02:30.734Z,98378.38
2023-01-04T09:04:57.532Z,98365.19
2023-01-04T09:07:24.231Z,98374.34
2023-01-04T09:09:50.899Z,98365.75
2023-01-04T09:12:17.518Z,98370.19
2023-01-04T09:14:44.167Z,98364.84
2023-01-04T09:17:10.826Z,98373.22
2023-01-04T09:19:37.488Z,98367.63
2023-01-04T09:22:04.213Z,98369.09
2023-01-04T09:24:32.890Z,98360.13
2023-01-04T09:26:59.621Z,98368.25
2023-01-04T09:29:26.356Z,98371.03
2023-01-04T09:31:54.123Z,98365.19
2023-01-04T09:34:20.817Z,98364.13
2023-01-04T09:36:47.503Z,98366.97
2023-01-04T09:39:21.468Z,98381.72
2023-01-04T09:41:57.453Z,98379.66
2023-01-04T09:47:33.151Z,98369.16
2023-01-04T09:50:06.111Z,98380.88
2023-01-04T09:52:59.316Z,98379.13
2023-01-04T09:55:39.152Z,98390.34
2023-01-04T09:58:13.297Z,98389.78
2023-01-04T10:01:03.400Z,98385.44
2023-01-04T10:03:32.562Z,98387.63
2023-01-04T10:05:59.265Z,98388.13
2023-01-04T10:08:25.939Z,98379.13
2023-01-04T10:11:30.162Z,98379.34
2023-01-04T10:14:18.899Z,98382.19
2023-01-04T10:17:13.384Z,98363.69
2023-01-04T10:23:34.730Z,98358.63
2023-01-04T10:26:15.122Z,98358.81
2023-01-04T10:29:05.801Z,98356.75
2023-01-04T10:31:50.323Z,98356.03
2023-01-04T10:34:28.051Z,98353.97
2023-01-04T10:37:11.467Z,98347.91
2023-01-04T10:39:38.301Z,98340.38
2023-01-04T10:42:37.936Z,98339.19
2023-01-04T10:45:15.801Z,98322.13
2023-01-04T10:48:04.210Z,98327.09
2023-01-04T10:50:39.760Z,98324.56
2023-01-04T10:53:20.954Z,98324.28
2023-01-04T10:56:23.568Z,98328.44
2023-01-04T10:58:45.204Z,98338.06
2023-01-04T11:02:01.587Z,98336.88
2023-01-04T11:04:33.174Z,98330.66
2023-01-04T11:07:05.870Z,98320.72
2023-01-04T11:09:40.405Z,98318.97
2023-01-04T11:12:07.125Z,98323.78
2023-01-04T11:14:37.468Z,98322.81
2023-01-04T11:17:04.438Z,98331.84
2023-01-04T11:19:31.123Z,98328.03
2023-01-04T11:22:19.808Z,98312.22
2023-01-04T11:25:15.975Z,98307.06
2023-01-04T11:27:44.430Z,98310.06
2023-01-04T11:30:22.876Z,98308.97
2023-01-04T11:33:00.716Z,98304.84
2023-01-04T11:36:03.172Z,98308.19
2023-01-04T11:38:30.045Z,98308.84
2023-01-04T11:40:57.529Z,98302.88
2023-01-04T11:43:24.539Z,98306.41
2023-01-04T11:46:17.257Z,98301.16
2023-01-04T11:48:45.017Z,98301.56
2023-01-04T11:51:26.666Z,98297.19
2023-01-04T11:54:15.215Z,98291.78
2023-01-04T11:57:00.935Z,98285.75
2023-01-04T11:59:27.835Z,98272.28
2023-01-04T12:02:42.737Z,98272.88
2023-01-04T12:05:24.589Z,98262.97
2023-01-04T12:07:55.992Z,98272.63
2023-01-04T12:10:24.070Z,98274.34
2023-01-04T12:12:50.717Z,98266.72
2023-01-04T12:15:18.795Z,98264.88
2023-01-04T12:18:19.313Z,98265.66
2023-01-04T12:20:46.049Z,98279.56
2023-01-04T12:23:12.704Z,98271.22
2023-01-04T12:25:40.792Z,98269.16
2023-01-04T12:28:20.939Z,98261.00
2023-01-04T12:30:49.561Z,98257.50
2023-01-04T12:33:34.327Z,98258.53
2023-01-04T12:36:00.851Z,98262.13
2023-01-04T12:38:52.211Z,98255.78
2023-01-04T12:41:19.633Z,98254.13
2023-01-04T12:43:47.153Z,98257.91
2023-01-04T12:46:28.911Z,98255.63
2023-01-04T12:48:55.594Z,98254.50
2023-01-04T12:51:33.925Z,98260.84
2023-01-04T12:54:04.593Z,98260.41
2023-01-04T12:57:20.960Z,98260.84
2023-01-04T13:00:04.549Z,98261.69
2023-01-04T13:02:31.740Z,98258.81
2023-01-04T13:05:54.841Z,98260.75
2023-01-04T13:08:10.023Z,98256.06
2023-01-04T13:10:37.290Z,98252.13
2023-01-04T13:13:25.828Z,98246.38
2023-01-04T13:16:10.051Z,98244.47
2023-01-04T13:18:46.547Z,98231.34
2023-01-04T13:21:19.990Z,98225.94
2023-01-04T13:24:06.860Z,98221.50
2023-01-04T13:26:43.973Z,98222.09
2023-01-04T13:29:10.484Z,98218.31
2023-01-04T13:31:50.251Z,98208.03
2023-01-04T13:34:21.277Z,98213.41
2023-01-04T13:37:37.463Z,98203.28
2023-01-04T13:40:28.080Z,98194.22
2023-01-04T13:43:16.432Z,98184.94
2023-01-04T13:46:06.883Z,98188.34
2023-01-04T13:48:38.488Z,98198.44
2023-01-04T13:51:15.182Z,98202.81
2023-01-04T13:53:41.790Z,98195.13
2023-01-04T13:56:19.249Z,98193.13
2023-01-04T13:58:46.008Z,98189.22
2023-01-04T14:01:18.246Z,98193.75
2023-01-04T14:03:49.290Z,98195.38
2023-01-04T14:06:21.721Z,98196.22
2023-01-04T14:08:57.733Z,98198.22
2023-01-04T14:11:29.858Z,98208.44
2023-01-04T14:13:56.540Z,98205.69
2023-01-04T14:16:23.177Z,98202.38
2023-01-04T14:18:49.828Z,98196.03
2023-01-04T14:21:16.927Z,98199.56
2023-01-04T14:23:43.524Z,98197.97
2023-01-04T14:26:29.706Z,98196.69
2023-01-04T14:28:56.375Z,98203.22
2023-01-04T14:31:26.470Z,98200.19
2023-01-04T14:33:53.230Z,98203.56
2023-01-04T14:36:29.762Z,98204.41
2023-01-04T14:39:05.427Z,98209.88
2023-01-04T14:41:57.961Z,98215.13
2023-01-04T14:44:26.157Z,98214.63
2023-01-04T14:46:54.558Z,98220.06
2023-01-04T14:49:21.366Z,98207.63
2023-01-04T14:52:11.599Z,98215.63
2023-01-04T14:54:38.210Z,98211.72
2023-01-04T14:57:04.801Z,98213.44
2023-01-04T14:59:31.522Z,98215.56
2023-01-04T15:01:58.405Z,98218.16
2023-01-04T15:04:25.202Z,98221.09
2023-01-04T15:06:53.712Z,98217.59
2023-01-04T15:09:20.321Z,98216.59
2023-01-04T15:11:46.947Z,98216.72
2023-01-04T15:14:13.546Z,98214.31
2023-01-04T15:16:40.241Z,98217.59
2023-01-04T15:19:06.903Z,98214.16
2023-01-04T15:21:40.387Z,98208.22
2023-01-04T15:24:07.869Z,98206.53
2023-01-04T15:26:34.601Z,98206.09
2023-01-04T15:29:01.242Z,98208.41
2023-01-04T15:31:32.413Z,98203.28
2023-01-04T15:34:01.679Z,98209.50
2023-01-04T15:36:28.294Z,98215.50
2023-01-04T15:38:54.934Z,98213.41
2023-01-04T15:41:21.626Z,98211.72
2023-01-04T15:43:48.232Z,98215.63
2023-01-04T15:46:14.916Z,98209.03
2023-01-04T15:48:41.586Z,98212.34
2023-01-04T15:51:09.376Z,98212.31
2023-01-04T15:53:36.016Z,98212.50
2023-01-04T15:56:10.378Z,98214.34
2023-01-04T15:58:37.066Z,98210.19
2023-01-04T16:01:14.227Z,98215.97
2023-01-04T16:03:40.969Z,98215.91
2023-01-04T16:06:11.804Z,98207.41
2023-01-04T16:08:38.651Z,98209.25
2023-01-04T16:11:12.177Z,98209.25
2023-01-04T16:13:38.844Z,98205.94
2023-01-04T16:16:06.019Z,98217.91
2023-01-04T16:18:33.013Z,98211.22
2023-01-04T16:20:59.649Z,98212.63
2023-01-04T16:23:26.872Z,98213.53
2023-01-04T16:26:13.411Z,98218.28
2023-01-04T16:28:40.285Z,98222.25
2023-01-04T16:31:07.586Z,98219.16
2023-01-04T16:33:34.686Z,98221.59
2023-01-04T16:36:09.132Z,98219.97
2023-01-04T16:38:36.431Z,98218.53
2023-01-04T16:41:03.144Z,98215.84
2023-01-04T16:43:29.916Z,98213.53
2023-01-04T16:46:29.592Z,98218.66
2023-01-04T16:48:57.830Z,98219.97
2023-01-04T16:51:25.383Z,98219.53
2023-01-04T16:53:52.267Z,98223.66
2023-01-04T16:56:19.706Z,98231.09
2023-01-04T16:58:46.378Z,98225.72
2023-01-04T17:01:13.681Z,98236.41
2023-01-04T17:03:41.213Z,98243.22
2023-01-04T17:06:09.855Z,98235.44
2023-01-04T17:08:36.544Z,98237.31
2023-01-04T17:13:59.853Z,98239.53
2023-01-04T17:16:31.116Z,98237.84
2023-01-04T17:19:01.201Z,98234.72
2023-01-04T17:21:36.105Z,98230.19
2023-01-04T17:24:03.020Z,98225.25
2023-01-04T17:26:30.373Z,98229.56
2023-01-04T17:28:57.603Z,98229.34
2023-01-04T17:31:26.220Z,98225.38
2023-01-04T17:33:53.156Z,98235.69
2023-01-04T17:36:20.025Z,98229.09
2023-01-04T17:38:46.725Z,98239.19
2023-01-04T17:41:15.647Z,98249.13
2023-01-04T17:43:42.806Z,98247.06
2023-01-04T17:46:11.571Z,98247.06
2023-01-04T17:48:38.247Z,98242.31
2023-01-04T17:51:23.262Z,98232.88
2023-01-04T17:53:57.501Z,98233.88
2023-01-04T17:56:24.305Z,98233.81
2023-01-04T17:58:50.997Z,98235.94
2023-01-04T18:01:22.300Z,98234.72
2023-01-04T18:03:53.216Z,98232.88
2023-01-04T18:06:25.230Z,98244.38
2023-01-04T18:08:52.284Z,98231.56
2023-01-04T18:11:19.118Z,98230.34
2023-01-04T18:13:45.789Z,98228.13
2023-01-04T18:16:25.254Z,98229.28
2023-01-04T18:18:56.465Z,98227.44
2023-01-04T18:21:28.804Z,98229.72
2023-01-04T18:27:11.218Z,98237.63
2023-01-04T18:29:30.546Z,98234.94
2023-01-04T18:31:57.226Z,98235.56
2023-01-04T18:34:23.864Z,98228.34
2023-01-04T18:36:50.674Z,98222.75
2023-01-04T18:39:17.295Z,98219.38
2023-01-04T18:41:43.904Z,98219.69
2023-01-04T18:44:32.330Z,98204.94
2023-01-04T18:46:57.137Z,98200.59
2023-01-04T18:49:23.747Z,98199.38
2023-01-04T18:51:50.357Z,98212.88
2023-01-04T18:54:17.033Z,98207.31
2023-01-04T18:56:43.639Z,98209.63
2023-01-04T18:59:10.222Z,98206.72
2023-01-04T19:01:36.946Z,98212.38
2023-01-04T19:04:03.691Z,98216.00
2023-01-04T19:06:30.294Z,98231.97
2023-01-04T19:09:01.482Z,98230.13
2023-01-04T19:11:31.254Z,98227.50
2023-01-04T19:13:57.980Z,98221.91
2023-01-04T19:16:24.649Z,98218.66
2023-01-04T19:18:51.312Z,98220.66
2023-01-04T19:21:17.960Z,98219.22
2023-01-04T19:23:44.622Z,98229.78
2023-01-04T19:26:11.281Z,98220.06
2023-01-04T19:28:37.930Z,98220.19
2023-01-04T19:31:08.070Z,98217.31
2023-01-04T19:33:34.940Z,98215.25
2023-01-04T19:36:01.622Z,98215.69
2023-01-04T19:38:28.226Z,98215.44
2023-01-04T19:40:57.891Z,98210.00
2023-01-04T19:43:24.519Z,98211.94
2023-01-04T19:45:51.156Z,98213.41
2023-01-04T19:48:17.876Z,98210.53
2023-01-04T19:50:44.488Z,98215.31
2023-01-04T19:53:11.222Z,98211.16
2023-01-04T19:55:40.792Z,98208.09
2023-01-04T19:58:07.475Z,98208.47
2023-01-04T20:00:34.171Z,98211.53
2023-01-04T20:03:00.990Z,98209.94
2023-01-04T20:05:27.803Z,98200.41
2023-01-04T20:07:54.439Z,98200.59
2023-01-04T20:10:21.082Z,98210.72
2023-01-04T20:12:47.775Z,98214.47
2023-01-04T20:15:14.426Z,98212.38
2023-01-04T20:17:41.127Z,98209.94
2023-01-04T20:20:07.910Z,98209.09
2023-01-04T20:22:34.598Z,98214.53
2023-01-04T20:25:01.252Z,98206.09
2023-01-04T20:27:27.857Z,98206.63
2023-01-04T20:29:54.618Z,98201.75
2023-01-04T20:32:21.250Z,98205.66
2023-01-04T20:34:47.926Z,98199.88
2023-01-04T20:37:14.649Z,98202.56
2023-01-04T20:39:41.306Z,98201.25
2023-01-04T20:42:07.921Z,98189.91
2023-01-04T20:44:34.588Z,98188.50
2023-01-04T20:47:01.282Z,98186.25
2023-01-04T20:49:27.928Z,98190.44
2023-01-04T20:51:54.536Z,98192.75
2023-01-04T20:54:21.370Z,98191.31
2023-01-04T20:56:48.039Z,98190.28
2023-01-04T20:59:14.717Z,98192.31
2023-01-04T21:01:41.471Z,98180.09
2023-01-04T21:04:08.178Z,98173.69
2023-01-04T21:06:34.855Z,98166.47
2023-01-04T21:09:01.461Z,98150.97
2023-01-04T21:11:28.132Z,98161.91
2023-01-04T21:13:54.979Z,98166.66
2023-01-04T21:16:21.692Z,98170.16
2023-01-04T21:18:48.409Z,98166.22
2023-01-04T21:21:16.344Z,98169.34
2023-01-04T21:23:43.193Z,98177.03
2023-01-04T21:26:13.198Z,98172.47
2023-01-04T21:28:39.876Z,98162.88
2023-01-04T21:31:20.488Z,98157.50
2023-01-04T21:33:47.343Z,98164.53
2023-01-04T21:36:21.364Z,98151.47
2023-01-04T21:38:49.184Z,98151.03
2023-01-04T21:41:15.895Z,98149.94
2023-01-04T21:43:42.701Z,98153.09
2023-01-04T21:46:13.333Z,98151.41
2023-01-04T21:48:40.052Z,98149.78
2023-01-04T21:51:06.778Z,98152.47
2023-01-04T21:53:33.879Z,98144.78
2023-01-04T21:56:08.609Z,98138.56
2023-01-04T21:58:35.405Z,98141.19
2023-01-04T22:01:02.081Z,98133.75
2023-01-04T22:03:28.693Z,98124.44
2023-01-04T22:06:00.763Z,98121.31
2023-01-04T22:08:27.376Z,98115.94
2023-01-04T22:10:54.365Z,98110.41
2023-01-04T22:13:21.188Z,98112.44
2023-01-04T22:15:47.892Z,98103.16
2023-01-04T22:18:18.100Z,98105.28
2023-01-04T22:20:44.779Z,98103.38
2023-01-04T22:23:11.480Z,98113.50
2023-01-04T22:25:38.147Z,98112.72
2023-01-04T22:28:04.941Z,98115.41
2023-01-04T22:30:31.774Z,98117.69
2023-01-04T22:32:58.421Z,98112.03
2023-01-04T22:35:25.140Z,98106.44
2023-01-04T22:37:51.864Z,98110.53
2023-01-04T22:40:18.524Z,98106.09
2023-01-04T22:42:45.158Z,98111.56
2023-01-04T22:45:13.513Z,98102.72
2023-01-04T22:47:40.392Z,98103.97
2023-01-04T22:50:07.363Z,98105.66
2023-01-04T22:52:34.015Z,98103.38
2023-01-04T22:55:00.713Z,98109.81
2023-01-04T22:57:27.335Z,98109.19
2023-01-04T22:59:53.989Z,98111.16
2023-01-04T23:02:20.604Z,98112.00
2023-01-04T23:04:47.198Z,98113.41
2023-01-04T23:07:13.840Z,98111.34
2023-01-04T23:09:40.520Z,98120.91
2023-01-04T23:12:07.304Z,98117.38
2023-01-04T23:14:33.969Z,98122.13
2023-01-04T23:17:00.695Z,98123.13
2023-01-04T23:19:27.419Z,98120.13
2023-01-04T23:21:54.049Z,98119.53
2023-01-04T23:24:20.710Z,98119.16
2023-01-04T23:26:47.374Z,98125.00
2023-01-04T23:29:14.061Z,98115.91
2023-01-04T23:31:42.911Z,98110.78
2023-01-04T23:34:10.172Z,98118.41
2023-01-04T23:36:38.677Z,98110.72
2023-01-04T23:39:07.726Z,98111.16
2023-01-04T23:41:34.365Z,98109.88
2023-01-04T23:44:01.052Z,98111.47
2023-01-04T23:46:27.659Z,98116.69
2023-01-04T23:48:54.693Z,98104.19
2023-01-04T23:51:21.288Z,98107.47
2023-01-04T23:53:47.942Z,98113.53
2023-01-04T23:56:15.060Z,98112.38
2023-01-04T23:58:41.798Z,98110.41
